sensor_id;sensor_type;location;lat;lon;timestamp;P1;durP1;ratioP1;P2;durP2;ratioP2
21480;SDS011;10902;48.158;8.634;2024-03-29T00:02:43;5.18;;;1.35;;
21480;SDS011;10902;48.158;8.634;2024-03-29T00:05:29;3.42;;;1.15;;
21480;SDS011;10902;48.158;8.634;2024-03-29T00:08:14;4.35;;;1.10;;
21480;SDS011;10902;48.158;8.634;2024-03-29T00:11:00;2.60;;;1.02;;
21480;SDS011;10902;48.158;8.634;2024-03-29T00:13:45;3.70;;;1.17;;
21480;SDS011;10902;48.158;8.634;2024-03-29T00:16:31;3.97;;;1.23;;
21480;SDS011;10902;48.158;8.634;2024-03-29T00:19:17;3.15;;;1.10;;
21480;SDS011;10902;48.158;8.634;2024-03-29T00:22:02;3.17;;;1.13;;
21480;SDS011;10902;48.158;8.634;2024-03-29T00:24:48;3.40;;;1.10;;
21480;SDS011;10902;48.158;8.634;2024-03-29T00:27:33;4.38;;;1.23;;
21480;SDS011;10902;48.158;8.634;2024-03-29T00:30:19;3.20;;;0.75;;
21480;SDS011;10902;48.158;8.634;2024-03-29T00:33:05;3.88;;;1.42;;
21480;SDS011;10902;48.158;8.634;2024-03-29T00:35:50;4.32;;;1.35;;
21480;SDS011;10902;48.158;8.634;2024-03-29T00:38:36;4.35;;;1.35;;
21480;SDS011;10902;48.158;8.634;2024-03-29T00:41:21;5.63;;;1.80;;
21480;SDS011;10902;48.158;8.634;2024-03-29T00:44:07;5.75;;;1.40;;
21480;SDS011;10902;48.158;8.634;2024-03-29T00:46:52;3.83;;;1.40;;
21480;SDS011;10902;48.158;8.634;2024-03-29T00:49:38;6.40;;;1.92;;
21480;SDS011;10902;48.158;8.634;2024-03-29T00:52:24;3.00;;;1.00;;
21480;SDS011;10902;48.158;8.634;2024-03-29T00:55:10;3.95;;;1.50;;
21480;SDS011;10902;48.158;8.634;2024-03-29T00:57:55;3.88;;;1.35;;
21480;SDS011;10902;48.158;8.634;2024-03-29T01:00:41;4.05;;;1.35;;
21480;SDS011;10902;48.158;8.634;2024-03-29T01:03:27;2.38;;;0.70;;
21480;SDS011;10902;48.158;8.634;2024-03-29T01:06:16;3.08;;;0.93;;
21480;SDS011;10902;48.158;8.634;2024-03-29T01:09:02;3.35;;;1.10;;
21480;SDS011;10902;48.158;8.634;2024-03-29T01:11:49;2.80;;;1.00;;
21480;SDS011;10902;48.158;8.634;2024-03-29T01:14:35;2.78;;;1.05;;
21480;SDS011;10902;48.158;8.634;2024-03-29T01:17:21;2.40;;;0.80;;
21480;SDS011;10902;48.158;8.634;2024-03-29T01:20:06;3.80;;;0.93;;
21480;SDS011;10902;48.158;8.634;2024-03-29T01:22:53;4.22;;;1.10;;
21480;SDS011;10902;48.158;8.634;2024-03-29T01:25:39;4.18;;;1.02;;
21480;SDS011;10902;48.158;8.634;2024-03-29T01:28:25;2.80;;;0.80;;
21480;SDS011;10902;48.158;8.634;2024-03-29T01:31:11;3.08;;;1.00;;
21480;SDS011;10902;48.158;8.634;2024-03-29T01:33:57;4.63;;;1.42;;
21480;SDS011;10902;48.158;8.634;2024-03-29T01:36:43;2.80;;;0.93;;
21480;SDS011;10902;48.158;8.634;2024-03-29T01:39:29;3.00;;;0.90;;
21480;SDS011;10902;48.158;8.634;2024-03-29T01:42:17;2.35;;;0.70;;
21480;SDS011;10902;48.158;8.634;2024-03-29T01:45:03;3.05;;;1.00;;
21480;SDS011;10902;48.158;8.634;2024-03-29T01:47:49;4.22;;;0.88;;
21480;SDS011;10902;48.158;8.634;2024-03-29T01:50:35;3.67;;;1.10;;
21480;SDS011;10902;48.158;8.634;2024-03-29T01:53:21;3.72;;;1.05;;
21480;SDS011;10902;48.158;8.634;2024-03-29T01:56:09;2.58;;;1.20;;
21480;SDS011;10902;48.158;8.634;2024-03-29T01:58:54;2.47;;;0.88;;
21480;SDS011;10902;48.158;8.634;2024-03-29T02:01:43;2.97;;;1.02;;
21480;SDS011;10902;48.158;8.634;2024-03-29T02:04:30;3.53;;;0.85;;
21480;SDS011;10902;48.158;8.634;2024-03-29T02:07:16;3.97;;;1.25;;
21480;SDS011;10902;48.158;8.634;2024-03-29T02:10:02;3.97;;;1.20;;
21480;SDS011;10902;48.158;8.634;2024-03-29T02:12:48;2.97;;;0.90;;
21480;SDS011;10902;48.158;8.634;2024-03-29T02:15:34;3.38;;;0.98;;
21480;SDS011;10902;48.158;8.634;2024-03-29T02:18:19;3.38;;;0.80;;
21480;SDS011;10902;48.158;8.634;2024-03-29T02:21:05;2.47;;;0.77;;
21480;SDS011;10902;48.158;8.634;2024-03-29T02:24:07;2.90;;;0.85;;
21480;SDS011;10902;48.158;8.634;2024-03-29T02:26:54;3.60;;;1.13;;
21480;SDS011;10902;48.158;8.634;2024-03-29T02:29:41;4.30;;;1.20;;
21480;SDS011;10902;48.158;8.634;2024-03-29T02:32:27;4.53;;;1.40;;
21480;SDS011;10902;48.158;8.634;2024-03-29T02:35:12;3.42;;;1.20;;
21480;SDS011;10902;48.158;8.634;2024-03-29T02:37:58;3.80;;;1.30;;
21480;SDS011;10902;48.158;8.634;2024-03-29T02:40:44;4.68;;;1.10;;
21480;SDS011;10902;48.158;8.634;2024-03-29T02:43:29;4.85;;;1.00;;
21480;SDS011;10902;48.158;8.634;2024-03-29T02:46:15;2.70;;;1.00;;
21480;SDS011;10902;48.158;8.634;2024-03-29T02:49:00;3.03;;;1.10;;
21480;SDS011;10902;48.158;8.634;2024-03-29T02:51:46;3.33;;;1.25;;
21480;SDS011;10902;48.158;8.634;2024-03-29T02:54:31;3.38;;;0.82;;
21480;SDS011;10902;48.158;8.634;2024-03-29T02:57:18;2.67;;;0.95;;
21480;SDS011;10902;48.158;8.634;2024-03-29T03:00:04;3.75;;;1.08;;
21480;SDS011;10902;48.158;8.634;2024-03-29T03:02:54;2.75;;;0.85;;
21480;SDS011;10902;48.158;8.634;2024-03-29T03:05:39;3.63;;;1.15;;
21480;SDS011;10902;48.158;8.634;2024-03-29T03:08:25;2.80;;;0.88;;
21480;SDS011;10902;48.158;8.634;2024-03-29T03:11:29;3.25;;;0.85;;
21480;SDS011;10902;48.158;8.634;2024-03-29T03:14:14;3.47;;;1.00;;
21480;SDS011;10902;48.158;8.634;2024-03-29T03:17:00;2.58;;;0.90;;
21480;SDS011;10902;48.158;8.634;2024-03-29T03:19:45;3.38;;;1.00;;
21480;SDS011;10902;48.158;8.634;2024-03-29T03:22:31;1.88;;;0.70;;
21480;SDS011;10902;48.158;8.634;2024-03-29T03:25:17;2.60;;;0.82;;
21480;SDS011;10902;48.158;8.634;2024-03-29T03:28:02;3.13;;;0.90;;
21480;SDS011;10902;48.158;8.634;2024-03-29T03:30:49;2.70;;;0.70;;
21480;SDS011;10902;48.158;8.634;2024-03-29T03:33:34;4.53;;;0.90;;
21480;SDS011;10902;48.158;8.634;2024-03-29T03:36:20;3.20;;;1.30;;
21480;SDS011;10902;48.158;8.634;2024-03-29T03:39:06;3.17;;;0.80;;
21480;SDS011;10902;48.158;8.634;2024-03-29T03:41:51;2.55;;;1.00;;
21480;SDS011;10902;48.158;8.634;2024-03-29T03:44:37;3.90;;;1.00;;
21480;SDS011;10902;48.158;8.634;2024-03-29T03:47:22;3.15;;;1.05;;
21480;SDS011;10902;48.158;8.634;2024-03-29T03:50:08;2.83;;;1.05;;
21480;SDS011;10902;48.158;8.634;2024-03-29T03:52:54;3.13;;;0.82;;
21480;SDS011;10902;48.158;8.634;2024-03-29T03:55:39;2.47;;;0.93;;
21480;SDS011;10902;48.158;8.634;2024-03-29T03:58:25;2.65;;;0.85;;
21480;SDS011;10902;48.158;8.634;2024-03-29T04:01:10;2.55;;;0.70;;
21480;SDS011;10902;48.158;8.634;2024-03-29T04:03:56;2.17;;;0.73;;
21480;SDS011;10902;48.158;8.634;2024-03-29T04:06:42;2.70;;;0.80;;
21480;SDS011;10902;48.158;8.634;2024-03-29T04:09:27;3.75;;;1.17;;
21480;SDS011;10902;48.158;8.634;2024-03-29T04:12:13;2.90;;;0.80;;
21480;SDS011;10902;48.158;8.634;2024-03-29T04:14:59;2.65;;;0.90;;
21480;SDS011;10902;48.158;8.634;2024-03-29T04:17:45;4.22;;;1.13;;
21480;SDS011;10902;48.158;8.634;2024-03-29T04:20:30;3.22;;;1.05;;
21480;SDS011;10902;48.158;8.634;2024-03-29T04:23:17;3.22;;;0.88;;
21480;SDS011;10902;48.158;8.634;2024-03-29T04:26:02;3.13;;;0.80;;
21480;SDS011;10902;48.158;8.634;2024-03-29T04:28:48;3.08;;;0.98;;
21480;SDS011;10902;48.158;8.634;2024-03-29T04:31:34;2.45;;;0.80;;
21480;SDS011;10902;48.158;8.634;2024-03-29T04:34:19;2.45;;;0.70;;
21480;SDS011;10902;48.158;8.634;2024-03-29T04:37:05;3.00;;;1.00;;
21480;SDS011;10902;48.158;8.634;2024-03-29T04:39:50;3.15;;;1.10;;
21480;SDS011;10902;48.158;8.634;2024-03-29T04:42:36;3.75;;;0.80;;
21480;SDS011;10902;48.158;8.634;2024-03-29T04:45:21;2.28;;;0.80;;
21480;SDS011;10902;48.158;8.634;2024-03-29T04:48:07;3.40;;;0.80;;
21480;SDS011;10902;48.158;8.634;2024-03-29T04:50:53;2.63;;;0.77;;
21480;SDS011;10902;48.158;8.634;2024-03-29T04:53:39;2.10;;;0.70;;
21480;SDS011;10902;48.158;8.634;2024-03-29T04:56:24;2.10;;;0.68;;
21480;SDS011;10902;48.158;8.634;2024-03-29T04:59:10;1.98;;;0.63;;
21480;SDS011;10902;48.158;8.634;2024-03-29T05:01:56;2.95;;;0.70;;
21480;SDS011;10902;48.158;8.634;2024-03-29T05:04:41;2.78;;;0.55;;
21480;SDS011;10902;48.158;8.634;2024-03-29T05:07:28;3.50;;;0.90;;
21480;SDS011;10902;48.158;8.634;2024-03-29T05:10:13;1.98;;;0.60;;
21480;SDS011;10902;48.158;8.634;2024-03-29T05:13:00;2.53;;;0.60;;
21480;SDS011;10902;48.158;8.634;2024-03-29T05:15:46;1.73;;;0.60;;
21480;SDS011;10902;48.158;8.634;2024-03-29T05:18:33;2.17;;;0.70;;
21480;SDS011;10902;48.158;8.634;2024-03-29T05:21:18;1.98;;;0.63;;
21480;SDS011;10902;48.158;8.634;2024-03-29T05:24:04;2.35;;;0.70;;
21480;SDS011;10902;48.158;8.634;2024-03-29T05:26:50;1.95;;;0.65;;
21480;SDS011;10902;48.158;8.634;2024-03-29T05:29:36;3.15;;;1.25;;
21480;SDS011;10902;48.158;8.634;2024-03-29T05:32:21;5.15;;;1.20;;
21480;SDS011;10902;48.158;8.634;2024-03-29T05:35:07;3.55;;;1.17;;
21480;SDS011;10902;48.158;8.634;2024-03-29T05:37:54;2.17;;;0.80;;
21480;SDS011;10902;48.158;8.634;2024-03-29T05:40:39;3.50;;;1.00;;
21480;SDS011;10902;48.158;8.634;2024-03-29T05:43:25;3.55;;;1.08;;
21480;SDS011;10902;48.158;8.634;2024-03-29T05:46:11;2.42;;;0.80;;
21480;SDS011;10902;48.158;8.634;2024-03-29T05:48:56;2.47;;;1.00;;
21480;SDS011;10902;48.158;8.634;2024-03-29T05:51:42;2.35;;;0.80;;
21480;SDS011;10902;48.158;8.634;2024-03-29T05:54:27;1.90;;;0.70;;
21480;SDS011;10902;48.158;8.634;2024-03-29T05:57:13;3.25;;;1.23;;
21480;SDS011;10902;48.158;8.634;2024-03-29T05:59:59;3.45;;;1.13;;
21480;SDS011;10902;48.158;8.634;2024-03-29T06:02:44;2.00;;;0.60;;
21480;SDS011;10902;48.158;8.634;2024-03-29T06:05:30;1.77;;;0.50;;
21480;SDS011;10902;48.158;8.634;2024-03-29T06:08:16;1.95;;;0.50;;
21480;SDS011;10902;48.158;8.634;2024-03-29T06:11:01;2.72;;;0.70;;
21480;SDS011;10902;48.158;8.634;2024-03-29T06:13:47;2.05;;;0.52;;
21480;SDS011;10902;48.158;8.634;2024-03-29T06:16:38;2.15;;;0.60;;
21480;SDS011;10902;48.158;8.634;2024-03-29T06:19:42;2.30;;;0.65;;
21480;SDS011;10902;48.158;8.634;2024-03-29T06:22:28;1.23;;;0.40;;
21480;SDS011;10902;48.158;8.634;2024-03-29T06:25:16;2.47;;;0.63;;
21480;SDS011;10902;48.158;8.634;2024-03-29T06:28:02;1.13;;;0.40;;
21480;SDS011;10902;48.158;8.634;2024-03-29T06:30:48;2.80;;;0.80;;
21480;SDS011;10902;48.158;8.634;2024-03-29T06:33:34;1.73;;;0.60;;
21480;SDS011;10902;48.158;8.634;2024-03-29T06:36:19;1.95;;;0.60;;
21480;SDS011;10902;48.158;8.634;2024-03-29T06:39:05;2.13;;;0.60;;
21480;SDS011;10902;48.158;8.634;2024-03-29T06:41:50;1.95;;;0.60;;
21480;SDS011;10902;48.158;8.634;2024-03-29T06:44:36;2.22;;;0.70;;
21480;SDS011;10902;48.158;8.634;2024-03-29T06:47:22;1.55;;;0.50;;
21480;SDS011;10902;48.158;8.634;2024-03-29T06:50:07;1.02;;;0.40;;
21480;SDS011;10902;48.158;8.634;2024-03-29T06:52:53;1.45;;;0.47;;
21480;SDS011;10902;48.158;8.634;2024-03-29T06:55:40;2.28;;;0.60;;
21480;SDS011;10902;48.158;8.634;2024-03-29T06:58:25;2.70;;;0.70;;
21480;SDS011;10902;48.158;8.634;2024-03-29T07:01:11;3.38;;;1.10;;
21480;SDS011;10902;48.158;8.634;2024-03-29T07:03:56;3.22;;;1.25;;
21480;SDS011;10902;48.158;8.634;2024-03-29T07:06:42;2.30;;;0.80;;
21480;SDS011;10902;48.158;8.634;2024-03-29T07:09:32;2.78;;;0.70;;
21480;SDS011;10902;48.158;8.634;2024-03-29T07:12:18;5.00;;;1.60;;
21480;SDS011;10902;48.158;8.634;2024-03-29T07:15:03;4.55;;;2.20;;
21480;SDS011;10902;48.158;8.634;2024-03-29T07:17:49;2.90;;;1.10;;
21480;SDS011;10902;48.158;8.634;2024-03-29T07:20:35;2.05;;;0.70;;
21480;SDS011;10902;48.158;8.634;2024-03-29T07:23:21;2.53;;;0.90;;
21480;SDS011;10902;48.158;8.634;2024-03-29T07:26:07;2.88;;;1.10;;
21480;SDS011;10902;48.158;8.634;2024-03-29T07:28:52;1.50;;;0.50;;
21480;SDS011;10902;48.158;8.634;2024-03-29T07:31:38;2.38;;;0.80;;
21480;SDS011;10902;48.158;8.634;2024-03-29T07:34:23;2.17;;;0.50;;
21480;SDS011;10902;48.158;8.634;2024-03-29T07:37:09;1.90;;;0.50;;
21480;SDS011;10902;48.158;8.634;2024-03-29T07:40:00;2.28;;;0.50;;
21480;SDS011;10902;48.158;8.634;2024-03-29T07:42:45;1.35;;;0.50;;
21480;SDS011;10902;48.158;8.634;2024-03-29T07:45:31;1.65;;;0.45;;
21480;SDS011;10902;48.158;8.634;2024-03-29T07:48:17;2.45;;;0.70;;
21480;SDS011;10902;48.158;8.634;2024-03-29T07:51:03;2.33;;;0.65;;
21480;SDS011;10902;48.158;8.634;2024-03-29T07:53:48;3.70;;;0.95;;
21480;SDS011;10902;48.158;8.634;2024-03-29T07:56:34;2.80;;;0.93;;
21480;SDS011;10902;48.158;8.634;2024-03-29T07:59:19;2.78;;;0.60;;
21480;SDS011;10902;48.158;8.634;2024-03-29T08:02:05;2.58;;;0.77;;
21480;SDS011;10902;48.158;8.634;2024-03-29T08:04:52;2.42;;;0.70;;
21480;SDS011;10902;48.158;8.634;2024-03-29T08:07:37;2.08;;;0.57;;
21480;SDS011;10902;48.158;8.634;2024-03-29T08:10:23;3.47;;;1.52;;
21480;SDS011;10902;48.158;8.634;2024-03-29T08:13:08;2.35;;;0.80;;
21480;SDS011;10902;48.158;8.634;2024-03-29T08:16:01;5.07;;;1.85;;
21480;SDS011;10902;48.158;8.634;2024-03-29T08:18:47;3.42;;;1.00;;
21480;SDS011;10902;48.158;8.634;2024-03-29T08:21:33;3.60;;;1.52;;
21480;SDS011;10902;48.158;8.634;2024-03-29T08:24:18;4.47;;;2.20;;
21480;SDS011;10902;48.158;8.634;2024-03-29T08:27:04;5.40;;;2.65;;
21480;SDS011;10902;48.158;8.634;2024-03-29T08:29:50;3.83;;;1.40;;
21480;SDS011;10902;48.158;8.634;2024-03-29T08:32:35;4.70;;;1.50;;
21480;SDS011;10902;48.158;8.634;2024-03-29T08:35:21;5.57;;;1.70;;
21480;SDS011;10902;48.158;8.634;2024-03-29T08:38:07;3.58;;;1.25;;
21480;SDS011;10902;48.158;8.634;2024-03-29T08:40:52;3.42;;;1.10;;
21480;SDS011;10902;48.158;8.634;2024-03-29T08:43:38;3.45;;;0.93;;
21480;SDS011;10902;48.158;8.634;2024-03-29T08:46:23;4.03;;;1.40;;
21480;SDS011;10902;48.158;8.634;2024-03-29T08:49:09;3.55;;;1.50;;
21480;SDS011;10902;48.158;8.634;2024-03-29T08:51:55;3.75;;;1.60;;
21480;SDS011;10902;48.158;8.634;2024-03-29T08:54:42;3.90;;;1.45;;
21480;SDS011;10902;48.158;8.634;2024-03-29T08:57:28;4.28;;;1.67;;
21480;SDS011;10902;48.158;8.634;2024-03-29T09:00:13;3.55;;;1.55;;
21480;SDS011;10902;48.158;8.634;2024-03-29T09:02:59;3.20;;;1.23;;
21480;SDS011;10902;48.158;8.634;2024-03-29T09:05:46;3.97;;;1.65;;
21480;SDS011;10902;48.158;8.634;2024-03-29T09:08:32;12.38;;;6.82;;
21480;SDS011;10902;48.158;8.634;2024-03-29T09:11:18;9.73;;;5.60;;
21480;SDS011;10902;48.158;8.634;2024-03-29T09:14:03;7.18;;;3.15;;
21480;SDS011;10902;48.158;8.634;2024-03-29T09:16:51;4.43;;;2.22;;
21480;SDS011;10902;48.158;8.634;2024-03-29T09:19:37;3.95;;;1.83;;
21480;SDS011;10902;48.158;8.634;2024-03-29T09:22:23;3.92;;;1.73;;
21480;SDS011;10902;48.158;8.634;2024-03-29T09:25:09;5.00;;;1.50;;
21480;SDS011;10902;48.158;8.634;2024-03-29T09:27:58;5.60;;;1.50;;
21480;SDS011;10902;48.158;8.634;2024-03-29T09:30:44;3.55;;;1.30;;
21480;SDS011;10902;48.158;8.634;2024-03-29T09:33:30;3.40;;;1.20;;
21480;SDS011;10902;48.158;8.634;2024-03-29T09:36:15;3.63;;;1.58;;
21480;SDS011;10902;48.158;8.634;2024-03-29T09:39:01;3.95;;;1.23;;
21480;SDS011;10902;48.158;8.634;2024-03-29T09:41:49;2.90;;;0.90;;
21480;SDS011;10902;48.158;8.634;2024-03-29T09:44:35;3.58;;;1.20;;
21480;SDS011;10902;48.158;8.634;2024-03-29T09:47:21;3.33;;;1.30;;
21480;SDS011;10902;48.158;8.634;2024-03-29T09:50:08;3.28;;;1.00;;
21480;SDS011;10902;48.158;8.634;2024-03-29T09:52:54;2.80;;;1.10;;
21480;SDS011;10902;48.158;8.634;2024-03-29T09:55:41;3.03;;;1.20;;
21480;SDS011;10902;48.158;8.634;2024-03-29T09:58:26;3.65;;;1.10;;
21480;SDS011;10902;48.158;8.634;2024-03-29T10:01:12;2.88;;;1.27;;
21480;SDS011;10902;48.158;8.634;2024-03-29T10:03:58;3.55;;;0.90;;
21480;SDS011;10902;48.158;8.634;2024-03-29T10:06:48;3.10;;;1.00;;
21480;SDS011;10902;48.158;8.634;2024-03-29T10:09:35;3.10;;;1.00;;
21480;SDS011;10902;48.158;8.634;2024-03-29T10:12:21;3.58;;;1.10;;
21480;SDS011;10902;48.158;8.634;2024-03-29T10:15:07;2.70;;;0.90;;
21480;SDS011;10902;48.158;8.634;2024-03-29T10:18:08;2.90;;;0.77;;
21480;SDS011;10902;48.158;8.634;2024-03-29T10:21:04;2.15;;;0.60;;
21480;SDS011;10902;48.158;8.634;2024-03-29T10:23:54;2.95;;;1.00;;
21480;SDS011;10902;48.158;8.634;2024-03-29T10:26:40;4.07;;;1.00;;
21480;SDS011;10902;48.158;8.634;2024-03-29T10:29:30;3.45;;;0.93;;
21480;SDS011;10902;48.158;8.634;2024-03-29T10:32:17;2.50;;;0.80;;
21480;SDS011;10902;48.158;8.634;2024-03-29T10:35:03;1.70;;;0.50;;
21480;SDS011;10902;48.158;8.634;2024-03-29T10:37:49;2.75;;;0.70;;
21480;SDS011;10902;48.158;8.634;2024-03-29T10:40:35;2.70;;;0.85;;
21480;SDS011;10902;48.158;8.634;2024-03-29T10:43:23;2.45;;;0.90;;
21480;SDS011;10902;48.158;8.634;2024-03-29T10:46:09;3.33;;;1.10;;
21480;SDS011;10902;48.158;8.634;2024-03-29T10:48:56;3.63;;;1.00;;
21480;SDS011;10902;48.158;8.634;2024-03-29T10:51:42;1.98;;;0.70;;
21480;SDS011;10902;48.158;8.634;2024-03-29T10:54:28;2.78;;;0.70;;
21480;SDS011;10902;48.158;8.634;2024-03-29T10:57:24;2.75;;;0.80;;
21480;SDS011;10902;48.158;8.634;2024-03-29T11:00:12;2.47;;;0.80;;
21480;SDS011;10902;48.158;8.634;2024-03-29T11:06:17;3.30;;;0.98;;
21480;SDS011;10902;48.158;8.634;2024-03-29T11:09:09;4.72;;;2.20;;
21480;SDS011;10902;48.158;8.634;2024-03-29T11:11:58;6.38;;;2.97;;
21480;SDS011;10902;48.158;8.634;2024-03-29T11:14:48;8.85;;;4.15;;
21480;SDS011;10902;48.158;8.634;2024-03-29T11:17:42;4.20;;;2.00;;
21480;SDS011;10902;48.158;8.634;2024-03-29T11:20:28;5.63;;;1.50;;
21480;SDS011;10902;48.158;8.634;2024-03-29T11:23:22;3.75;;;1.42;;
21480;SDS011;10902;48.158;8.634;2024-03-29T11:26:08;3.45;;;1.00;;
21480;SDS011;10902;48.158;8.634;2024-03-29T11:28:53;3.53;;;1.45;;
21480;SDS011;10902;48.158;8.634;2024-03-29T11:31:41;4.22;;;1.40;;
21480;SDS011;10902;48.158;8.634;2024-03-29T11:34:30;4.75;;;1.60;;
21480;SDS011;10902;48.158;8.634;2024-03-29T11:37:17;4.07;;;1.23;;
21480;SDS011;10902;48.158;8.634;2024-03-29T11:40:03;4.18;;;1.50;;
21480;SDS011;10902;48.158;8.634;2024-03-29T11:42:49;3.25;;;1.13;;
21480;SDS011;10902;48.158;8.634;2024-03-29T11:45:37;3.28;;;1.27;;
21480;SDS011;10902;48.158;8.634;2024-03-29T11:48:26;2.72;;;1.10;;
21480;SDS011;10902;48.158;8.634;2024-03-29T11:51:13;3.63;;;1.10;;
21480;SDS011;10902;48.158;8.634;2024-03-29T11:54:00;3.05;;;1.00;;
21480;SDS011;10902;48.158;8.634;2024-03-29T11:56:47;2.90;;;1.00;;
21480;SDS011;10902;48.158;8.634;2024-03-29T11:59:33;3.42;;;0.95;;
21480;SDS011;10902;48.158;8.634;2024-03-29T12:02:18;3.75;;;1.30;;
21480;SDS011;10902;48.158;8.634;2024-03-29T12:05:07;3.25;;;0.90;;
21480;SDS011;10902;48.158;8.634;2024-03-29T12:07:53;3.80;;;1.10;;
21480;SDS011;10902;48.158;8.634;2024-03-29T12:10:39;2.95;;;1.05;;
21480;SDS011;10902;48.158;8.634;2024-03-29T12:13:25;3.70;;;1.17;;
21480;SDS011;10902;48.158;8.634;2024-03-29T12:16:12;2.80;;;1.10;;
21480;SDS011;10902;48.158;8.634;2024-03-29T12:18:57;2.55;;;0.90;;
21480;SDS011;10902;48.158;8.634;2024-03-29T12:21:43;3.38;;;1.00;;
21480;SDS011;10902;48.158;8.634;2024-03-29T12:24:29;2.65;;;0.93;;
21480;SDS011;10902;48.158;8.634;2024-03-29T12:27:15;2.25;;;0.88;;
21480;SDS011;10902;48.158;8.634;2024-03-29T12:30:01;3.45;;;0.80;;
21480;SDS011;10902;48.158;8.634;2024-03-29T12:32:46;2.95;;;1.00;;
21480;SDS011;10902;48.158;8.634;2024-03-29T12:35:32;3.63;;;1.10;;
21480;SDS011;10902;48.158;8.634;2024-03-29T12:38:20;3.10;;;1.10;;
21480;SDS011;10902;48.158;8.634;2024-03-29T12:41:06;2.75;;;0.80;;
21480;SDS011;10902;48.158;8.634;2024-03-29T12:43:52;3.30;;;1.05;;
21480;SDS011;10902;48.158;8.634;2024-03-29T12:46:37;2.42;;;0.70;;
21480;SDS011;10902;48.158;8.634;2024-03-29T12:49:26;3.80;;;1.00;;
21480;SDS011;10902;48.158;8.634;2024-03-29T12:52:12;4.07;;;0.80;;
21480;SDS011;10902;48.158;8.634;2024-03-29T12:54:58;2.80;;;0.85;;
21480;SDS011;10902;48.158;8.634;2024-03-29T12:57:43;2.10;;;0.70;;
21480;SDS011;10902;48.158;8.634;2024-03-29T13:00:29;2.42;;;0.80;;
21480;SDS011;10902;48.158;8.634;2024-03-29T13:03:21;2.58;;;0.90;;
21480;SDS011;10902;48.158;8.634;2024-03-29T13:06:07;2.35;;;0.82;;
21480;SDS011;10902;48.158;8.634;2024-03-29T13:08:52;2.40;;;0.70;;
21480;SDS011;10902;48.158;8.634;2024-03-29T13:11:41;5.53;;;2.10;;
21480;SDS011;10902;48.158;8.634;2024-03-29T13:14:27;3.65;;;1.40;;
21480;SDS011;10902;48.158;8.634;2024-03-29T13:17:12;3.25;;;1.40;;
21480;SDS011;10902;48.158;8.634;2024-03-29T13:19:58;3.33;;;1.00;;
21480;SDS011;10902;48.158;8.634;2024-03-29T13:22:45;3.05;;;0.82;;
21480;SDS011;10902;48.158;8.634;2024-03-29T13:25:31;2.83;;;0.70;;
21480;SDS011;10902;48.158;8.634;2024-03-29T13:28:17;1.92;;;0.60;;
21480;SDS011;10902;48.158;8.634;2024-03-29T13:31:03;2.22;;;0.70;;
21480;SDS011;10902;48.158;8.634;2024-03-29T13:33:48;2.50;;;0.90;;
21480;SDS011;10902;48.158;8.634;2024-03-29T13:36:34;2.80;;;0.90;;
21480;SDS011;10902;48.158;8.634;2024-03-29T13:39:19;2.40;;;0.70;;
21480;SDS011;10902;48.158;8.634;2024-03-29T13:42:08;3.03;;;1.05;;
21480;SDS011;10902;48.158;8.634;2024-03-29T13:44:53;2.60;;;0.50;;
21480;SDS011;10902;48.158;8.634;2024-03-29T13:47:41;3.45;;;1.15;;
21480;SDS011;10902;48.158;8.634;2024-03-29T13:50:27;2.78;;;0.70;;
21480;SDS011;10902;48.158;8.634;2024-03-29T13:53:13;2.47;;;0.70;;
21480;SDS011;10902;48.158;8.634;2024-03-29T13:56:01;2.38;;;0.70;;
21480;SDS011;10902;48.158;8.634;2024-03-29T13:58:48;3.78;;;0.90;;
21480;SDS011;10902;48.158;8.634;2024-03-29T14:01:33;2.25;;;0.80;;
21480;SDS011;10902;48.158;8.634;2024-03-29T14:04:19;2.88;;;0.75;;
21480;SDS011;10902;48.158;8.634;2024-03-29T14:07:05;2.35;;;0.85;;
21480;SDS011;10902;48.158;8.634;2024-03-29T14:09:53;2.20;;;0.70;;
21480;SDS011;10902;48.158;8.634;2024-03-29T14:12:39;2.88;;;0.68;;
21480;SDS011;10902;48.158;8.634;2024-03-29T14:15:25;3.58;;;0.85;;
21480;SDS011;10902;48.158;8.634;2024-03-29T14:18:12;2.85;;;0.98;;
21480;SDS011;10902;48.158;8.634;2024-03-29T14:20:58;2.40;;;0.70;;
21480;SDS011;10902;48.158;8.634;2024-03-29T14:23:44;2.40;;;0.70;;
21480;SDS011;10902;48.158;8.634;2024-03-29T14:26:29;3.90;;;1.10;;
21480;SDS011;10902;48.158;8.634;2024-03-29T14:29:15;3.03;;;1.00;;
21480;SDS011;10902;48.158;8.634;2024-03-29T14:32:03;2.53;;;0.80;;
21480;SDS011;10902;48.158;8.634;2024-03-29T14:34:48;2.72;;;1.00;;
21480;SDS011;10902;48.158;8.634;2024-03-29T14:37:34;3.67;;;1.27;;
21480;SDS011;10902;48.158;8.634;2024-03-29T14:40:20;2.90;;;0.80;;
21480;SDS011;10902;48.158;8.634;2024-03-29T14:43:05;2.15;;;0.75;;
21480;SDS011;10902;48.158;8.634;2024-03-29T14:45:51;1.58;;;0.57;;
21480;SDS011;10902;48.158;8.634;2024-03-29T14:48:37;2.38;;;0.68;;
21480;SDS011;10902;48.158;8.634;2024-03-29T14:51:23;2.28;;;0.70;;
21480;SDS011;10902;48.158;8.634;2024-03-29T14:54:08;2.30;;;0.60;;
21480;SDS011;10902;48.158;8.634;2024-03-29T14:56:55;2.80;;;0.80;;
21480;SDS011;10902;48.158;8.634;2024-03-29T14:59:41;2.13;;;0.70;;
21480;SDS011;10902;48.158;8.634;2024-03-29T15:02:26;1.90;;;0.60;;
21480;SDS011;10902;48.158;8.634;2024-03-29T15:05:12;2.05;;;0.60;;
21480;SDS011;10902;48.158;8.634;2024-03-29T15:07:57;1.90;;;0.52;;
21480;SDS011;10902;48.158;8.634;2024-03-29T15:10:43;2.92;;;0.82;;
21480;SDS011;10902;48.158;8.634;2024-03-29T15:13:29;4.35;;;0.85;;
21480;SDS011;10902;48.158;8.634;2024-03-29T15:16:14;2.22;;;0.50;;
21480;SDS011;10902;48.158;8.634;2024-03-29T15:19:00;1.90;;;0.60;;
21480;SDS011;10902;48.158;8.634;2024-03-29T15:21:47;2.08;;;0.60;;
21480;SDS011;10902;48.158;8.634;2024-03-29T15:24:33;2.50;;;1.05;;
21480;SDS011;10902;48.158;8.634;2024-03-29T15:27:19;3.05;;;0.90;;
21480;SDS011;10902;48.158;8.634;2024-03-29T15:30:40;3.05;;;0.80;;
21480;SDS011;10902;48.158;8.634;2024-03-29T15:33:31;4.28;;;1.00;;
21480;SDS011;10902;48.158;8.634;2024-03-29T15:36:17;2.92;;;0.80;;
21480;SDS011;10902;48.158;8.634;2024-03-29T15:39:03;3.38;;;0.93;;
21480;SDS011;10902;48.158;8.634;2024-03-29T15:41:50;2.90;;;0.70;;
21480;SDS011;10902;48.158;8.634;2024-03-29T15:44:36;3.80;;;0.90;;
21480;SDS011;10902;48.158;8.634;2024-03-29T15:47:21;1.95;;;0.70;;
21480;SDS011;10902;48.158;8.634;2024-03-29T15:50:07;2.45;;;0.77;;
21480;SDS011;10902;48.158;8.634;2024-03-29T15:52:53;2.95;;;0.82;;
21480;SDS011;10902;48.158;8.634;2024-03-29T15:55:38;2.33;;;0.70;;
21480;SDS011;10902;48.158;8.634;2024-03-29T15:58:24;3.35;;;1.13;;
21480;SDS011;10902;48.158;8.634;2024-03-29T16:01:10;2.72;;;1.00;;
21480;SDS011;10902;48.158;8.634;2024-03-29T16:03:55;2.55;;;0.90;;
21480;SDS011;10902;48.158;8.634;2024-03-29T16:06:41;2.58;;;0.70;;
21480;SDS011;10902;48.158;8.634;2024-03-29T16:09:26;3.15;;;0.80;;
21480;SDS011;10902;48.158;8.634;2024-03-29T16:12:14;3.33;;;0.80;;
21480;SDS011;10902;48.158;8.634;2024-03-29T16:14:59;3.65;;;0.98;;
21480;SDS011;10902;48.158;8.634;2024-03-29T16:17:45;2.67;;;0.77;;
21480;SDS011;10902;48.158;8.634;2024-03-29T16:20:31;3.00;;;0.80;;
21480;SDS011;10902;48.158;8.634;2024-03-29T16:23:16;2.40;;;0.70;;
21480;SDS011;10902;48.158;8.634;2024-03-29T16:26:02;3.00;;;1.00;;
21480;SDS011;10902;48.158;8.634;2024-03-29T16:28:47;3.53;;;1.10;;
21480;SDS011;10902;48.158;8.634;2024-03-29T16:31:36;2.40;;;0.77;;
21480;SDS011;10902;48.158;8.634;2024-03-29T16:34:22;2.35;;;0.80;;
21480;SDS011;10902;48.158;8.634;2024-03-29T16:37:07;4.07;;;1.08;;
21480;SDS011;10902;48.158;8.634;2024-03-29T16:39:53;2.92;;;1.00;;
21480;SDS011;10902;48.158;8.634;2024-03-29T16:42:39;4.13;;;1.00;;
21480;SDS011;10902;48.158;8.634;2024-03-29T16:45:24;4.57;;;1.10;;
21480;SDS011;10902;48.158;8.634;2024-03-29T16:48:10;3.53;;;1.10;;